createdAt,value
2023-04-21T00:15:55.493Z,100011.25
2023-04-21T00:45:38.744Z,99995.72
2023-04-21T01:00:29.653Z,99985.63
2023-04-21T01:15:20.447Z,99982.93
2023-04-21T01:30:21.388Z,99973.05
2023-04-21T01:45:15.010Z,99977.03
2023-04-21T02:00:07.112Z,99987.88
2023-04-21T03:14:20.981Z,99994.47
2023-04-21T03:29:10.932Z,99985.78
2023-04-21T03:44:01.357Z,99984.39
2023-04-21T03:58:52.385Z,99977.47
2023-04-21T04:13:45.293Z,99955.27
2023-04-21T04:28:38.270Z,99987.00
2023-04-21T04:43:29.559Z,99969.23
2023-04-21T04:58:20.928Z,99979.41
2023-04-21T05:13:13.045Z,99997.06
2023-04-21T05:28:05.262Z,100019.06
2023-04-21T05:42:58.872Z,100019.14
2023-04-21T05:57:49.194Z,100034.21
2023-04-21T06:12:41.357Z,100039.84
2023-04-21T06:27:33.432Z,100040.78
2023-04-21T06:42:24.735Z,100034.38
2023-04-21T06:57:18.094Z,100015.66
2023-04-21T07:12:09.848Z,100009.00
2023-04-21T07:27:03.217Z,99993.33
2023-04-21T07:41:55.683Z,99980.55
2023-04-21T07:56:51.152Z,99978.57
2023-04-21T08:11:45.682Z,99973.86
2023-04-21T08:26:38.612Z,99965.14
2023-04-21T08:41:31.233Z,99947.34
2023-04-21T08:56:28.607Z,99945.39
2023-04-21T09:11:25.238Z,99926.81
2023-04-21T09:26:19.063Z,99913.64
2023-04-21T09:41:11.369Z,99895.80
2023-04-21T09:56:05.717Z,99883.92
2023-04-21T10:10:59.085Z,99882.14
2023-04-21T10:25:51.248Z,99857.16
2023-04-21T10:40:44.755Z,99850.13
2023-04-21T10:55:36.337Z,99822.13
2023-04-21T11:40:15.286Z,99777.69
2023-04-21T11:55:13.721Z,99778.75
2023-04-21T12:10:12.934Z,99755.80
2023-04-21T12:25:07.089Z,99753.09
2023-04-21T12:40:02.155Z,99748.94
2023-04-21T12:54:53.767Z,99736.85
2023-04-21T13:09:46.131Z,99721.75
2023-04-21T13:39:32.149Z,99702.23
2023-04-21T13:54:26.158Z,99666.20
2023-04-21T14:09:17.845Z,99644.58
2023-04-21T14:24:10.575Z,99624.50
2023-04-21T14:39:05.832Z,99605.02
2023-04-21T15:08:57.392Z,99623.78
2023-04-21T15:23:49.913Z,99725.95
2023-04-21T15:53:44.598Z,99749.09
2023-04-21T16:08:38.620Z,99614.20
2023-04-21T16:23:31.731Z,99634.95
2023-04-21T16:38:22.062Z,99662.61
2023-04-21T16:53:11.680Z,99630.36
2023-04-21T17:08:03.425Z,99643.06
2023-04-21T17:22:55.725Z,99636.42
2023-04-21T17:37:49.272Z,99636.22
2023-04-21T17:52:41.902Z,99646.17
2023-04-21T18:07:34.298Z,99658.87
2023-04-21T18:22:26.078Z,99666.41
2023-04-21T18:52:18.334Z,99678.94
2023-04-21T19:07:10.634Z,99700.44
2023-04-21T19:22:01.941Z,99711.04
2023-04-21T19:36:54.480Z,99700.23
2023-04-21T19:51:46.800Z,99700.48
2023-04-21T20:06:38.930Z,99699.75
2023-04-21T20:21:31.403Z,99709.94
2023-04-21T20:36:23.830Z,99701.49
2023-04-21T20:51:15.743Z,99701.70
2023-04-21T21:06:08.800Z,99712.83
2023-04-21T21:21:00.501Z,99722.98
2023-04-21T21:50:59.266Z,99725.50
2023-04-21T22:05:51.428Z,99708.32
2023-04-21T22:20:44.390Z,99711.37
2023-04-21T22:35:36.331Z,99715.52
2023-04-21T22:50:27.746Z,99707.33
